createdAt,value
2024-03-16T00:01:22.605Z,8.68
2024-03-16T00:03:49.922Z,11.82
2024-03-16T00:06:17.230Z,11.25
2024-03-16T00:08:44.485Z,12.75
2024-03-16T00:11:11.728Z,9.40
2024-03-16T00:13:38.969Z,6.63
2024-03-16T00:16:06.456Z,5.43
2024-03-16T00:18:33.825Z,9.90
2024-03-16T00:21:01.093Z,14.15
2024-03-16T00:23:28.307Z,11.00
2024-03-16T00:25:55.641Z,9.35
2024-03-16T00:28:22.886Z,8.77
2024-03-16T00:30:50.147Z,16.15
2024-03-16T00:33:17.407Z,7.15
2024-03-16T00:35:44.662Z,10.45
2024-03-16T00:38:11.946Z,5.10
2024-03-16T00:40:39.235Z,4.82
2024-03-16T00:43:06.568Z,7.40
2024-03-16T00:45:33.974Z,7.75
2024-03-16T00:48:01.303Z,5.40
2024-03-16T00:50:28.595Z,5.55
2024-03-16T00:52:55.845Z,9.52
2024-03-16T00:55:23.087Z,7.75
2024-03-16T00:57:50.416Z,7.85
2024-03-16T01:00:17.682Z,7.80
2024-03-16T01:02:44.928Z,11.77
2024-03-16T01:05:12.169Z,7.50
2024-03-16T01:07:39.442Z,8.00
2024-03-16T01:10:07.160Z,7.75
2024-03-16T01:12:34.655Z,7.63
2024-03-16T01:15:02.052Z,4.00
2024-03-16T01:17:29.357Z,8.25
2024-03-16T01:19:56.888Z,5.45
2024-03-16T01:22:24.166Z,6.43
2024-03-16T01:24:51.465Z,7.57
2024-03-16T01:27:18.743Z,9.07
2024-03-16T01:29:45.957Z,4.95
2024-03-16T01:32:13.209Z,6.13
2024-03-16T01:34:40.437Z,2.65
2024-03-16T01:37:07.745Z,5.57
2024-03-16T01:39:35.080Z,4.88
2024-03-16T01:42:02.367Z,4.18
2024-03-16T01:44:29.635Z,5.80
2024-03-16T01:46:56.888Z,4.35
2024-03-16T01:49:24.151Z,3.13
2024-03-16T01:51:51.439Z,3.30
2024-03-16T01:54:18.935Z,3.65
2024-03-16T01:56:46.184Z,5.68
2024-03-16T01:59:13.474Z,2.42
2024-03-16T02:01:40.796Z,8.05
2024-03-16T02:04:08.284Z,6.20
2024-03-16T02:06:35.585Z,7.03
2024-03-16T02:09:02.824Z,5.35
2024-03-16T02:11:30.115Z,6.50
2024-03-16T02:13:57.410Z,8.13
2024-03-16T02:16:24.684Z,5.97
2024-03-16T02:18:52.009Z,8.18
2024-03-16T02:21:19.249Z,9.52
2024-03-16T02:23:46.501Z,8.68
2024-03-16T02:26:13.886Z,10.20
2024-03-16T02:28:41.196Z,8.15
2024-03-16T02:31:08.522Z,11.20
2024-03-16T02:33:35.821Z,13.68
2024-03-16T02:36:03.095Z,12.27
2024-03-16T02:38:30.325Z,8.20
2024-03-16T02:40:57.570Z,10.68
2024-03-16T02:43:24.995Z,10.73
2024-03-16T02:45:52.280Z,8.93
2024-03-16T02:48:19.675Z,9.38
2024-03-16T02:50:46.982Z,10.77
2024-03-16T02:53:14.233Z,11.60
2024-03-16T02:55:41.499Z,10.30
2024-03-16T02:58:08.815Z,12.57
2024-03-16T03:00:36.160Z,8.38
2024-03-16T03:03:03.387Z,13.30
2024-03-16T03:05:30.643Z,8.93
2024-03-16T03:07:57.880Z,14.70
2024-03-16T03:10:25.142Z,12.38
2024-03-16T03:12:52.450Z,9.70
2024-03-16T03:15:19.697Z,10.35
2024-03-16T03:17:46.970Z,17.75
2024-03-16T03:20:14.213Z,12.70
2024-03-16T03:22:41.473Z,9.70
2024-03-16T03:25:08.837Z,9.93
2024-03-16T03:27:36.278Z,11.57
2024-03-16T03:30:04.070Z,10.07
2024-03-16T03:32:31.343Z,8.20
2024-03-16T03:34:58.586Z,16.20
2024-03-16T03:37:25.835Z,17.67
2024-03-16T03:39:53.176Z,10.82
2024-03-16T03:42:20.586Z,10.63
2024-03-16T03:44:47.803Z,11.65
2024-03-16T03:47:15.044Z,19.05
2024-03-16T03:49:42.263Z,15.63
2024-03-16T03:52:09.512Z,12.38
2024-03-16T03:54:36.807Z,12.70
2024-03-16T03:57:04.248Z,13.57
2024-03-16T03:59:31.480Z,10.05
2024-03-16T04:01:58.798Z,5.75
2024-03-16T04:04:26.080Z,9.27
2024-03-16T04:06:53.418Z,12.10
2024-03-16T04:09:20.696Z,13.40
2024-03-16T04:11:47.917Z,10.48
2024-03-16T04:14:15.185Z,12.02
2024-03-16T04:16:42.431Z,14.48
2024-03-16T04:19:09.834Z,10.95
2024-03-16T04:21:37.189Z,12.65
2024-03-16T04:24:04.597Z,8.98
2024-03-16T04:26:31.816Z,15.82
2024-03-16T04:28:59.094Z,9.25
2024-03-16T04:31:26.380Z,9.05
2024-03-16T04:33:53.725Z,8.27
2024-03-16T04:36:21.003Z,8.48
2024-03-16T04:38:48.250Z,9.57
2024-03-16T04:41:15.468Z,11.80
2024-03-16T04:43:42.777Z,11.82
2024-03-16T04:46:10.108Z,18.85
2024-03-16T04:48:37.506Z,14.10
2024-03-16T04:51:04.869Z,9.10
2024-03-16T04:53:32.137Z,16.33
2024-03-16T04:55:59.444Z,11.65
2024-03-16T04:58:26.698Z,11.35
2024-03-16T05:00:54.059Z,11.05
2024-03-16T05:03:21.316Z,9.27
2024-03-16T05:05:48.561Z,11.20
2024-03-16T05:08:15.821Z,10.82
2024-03-16T05:10:43.077Z,15.82
2024-03-16T05:13:10.378Z,14.25
2024-03-16T05:15:37.737Z,15.32
2024-03-16T05:18:05.171Z,18.67
2024-03-16T05:20:32.446Z,12.80
2024-03-16T05:22:59.724Z,14.20
2024-03-16T05:25:26.975Z,13.75
2024-03-16T05:27:54.226Z,21.55
2024-03-16T05:30:21.564Z,13.70
2024-03-16T05:32:48.912Z,11.85
2024-03-16T05:35:16.176Z,15.60
2024-03-16T05:37:43.397Z,12.48
2024-03-16T05:40:10.948Z,14.90
2024-03-16T05:42:38.204Z,14.63
2024-03-16T05:45:05.589Z,14.32
2024-03-16T05:47:32.865Z,15.27
2024-03-16T05:50:00.216Z,20.20
2024-03-16T05:52:27.537Z,13.68
2024-03-16T05:54:54.818Z,16.35
2024-03-16T05:57:22.115Z,13.25
2024-03-16T05:59:49.371Z,18.60
2024-03-16T06:02:16.618Z,12.48
2024-03-16T06:04:43.841Z,19.88
2024-03-16T06:07:11.182Z,21.95
2024-03-16T06:09:38.460Z,18.27
2024-03-16T06:12:05.754Z,15.88
2024-03-16T06:14:32.985Z,20.08
2024-03-16T06:17:00.236Z,12.18
2024-03-16T06:19:27.467Z,15.07
2024-03-16T06:21:54.716Z,14.70
2024-03-16T06:24:21.968Z,12.45
2024-03-16T06:26:49.219Z,15.85
2024-03-16T06:29:16.438Z,13.43
2024-03-16T06:31:43.668Z,12.75
2024-03-16T06:34:11.012Z,14.30
2024-03-16T06:36:38.396Z,16.63
2024-03-16T06:39:05.685Z,15.95
2024-03-16T06:41:32.960Z,13.35
2024-03-16T06:44:00.219Z,9.60
2024-03-16T06:46:27.439Z,13.38
2024-03-16T06:48:54.734Z,11.50
2024-03-16T06:51:22.092Z,14.38
2024-03-16T06:53:49.365Z,16.25
2024-03-16T06:56:16.598Z,10.63
2024-03-16T06:58:43.963Z,9.65
2024-03-16T07:01:11.296Z,10.43
2024-03-16T07:03:38.670Z,15.40
2024-03-16T07:06:06.056Z,14.25
2024-03-16T07:08:33.299Z,10.05
2024-03-16T07:11:00.578Z,14.25
2024-03-16T07:13:28.014Z,14.38
2024-03-16T07:15:55.318Z,8.77
2024-03-16T07:18:22.606Z,13.88
2024-03-16T07:20:49.882Z,10.23
2024-03-16T07:23:17.117Z,11.98
2024-03-16T07:25:44.367Z,12.48
2024-03-16T07:28:11.726Z,17.42
2024-03-16T07:30:39.163Z,12.43
2024-03-16T07:33:06.436Z,15.27
2024-03-16T07:35:33.708Z,13.82
2024-03-16T07:38:00.926Z,14.43
2024-03-16T07:40:28.194Z,13.95
2024-03-16T07:42:55.491Z,10.65
2024-03-16T07:45:22.763Z,6.22
2024-03-16T07:47:49.997Z,9.55
2024-03-16T07:50:17.268Z,6.82
2024-03-16T07:52:44.548Z,6.13
2024-03-16T07:55:11.871Z,5.78
2024-03-16T07:57:39.166Z,6.07
2024-03-16T08:00:06.798Z,5.80
2024-03-16T08:02:34.058Z,4.50
2024-03-16T08:05:01.328Z,5.20
2024-03-16T08:07:28.580Z,4.88
2024-03-16T08:09:55.903Z,1.67
2024-03-16T08:12:23.177Z,1.65
2024-03-16T08:14:50.425Z,1.73
2024-03-16T08:17:17.722Z,3.17
2024-03-16T08:19:44.942Z,2.55
2024-03-16T08:22:12.299Z,4.60
2024-03-16T08:24:39.611Z,4.07
2024-03-16T08:27:06.959Z,3.25
2024-03-16T08:29:34.241Z,6.53
2024-03-16T08:32:01.511Z,7.10
2024-03-16T08:34:28.806Z,4.38
2024-03-16T08:36:56.355Z,4.25
2024-03-16T08:39:23.597Z,7.30
2024-03-16T08:41:51.043Z,4.00
2024-03-16T08:44:18.329Z,7.47
2024-03-16T08:46:45.668Z,6.97
2024-03-16T08:49:13.026Z,6.63
2024-03-16T08:51:40.336Z,4.03
2024-03-16T08:54:07.573Z,6.60
2024-03-16T08:56:35.162Z,9.10
2024-03-16T08:59:02.409Z,7.78
2024-03-16T09:01:29.860Z,7.20
2024-03-16T09:03:57.287Z,8.00
2024-03-16T09:06:24.531Z,11.05
2024-03-16T09:08:51.803Z,11.27
2024-03-16T09:11:19.095Z,10.20
2024-03-16T09:13:46.394Z,10.35
2024-03-16T09:16:13.912Z,7.25
2024-03-16T09:18:41.273Z,4.45
2024-03-16T09:21:08.524Z,7.47
2024-03-16T09:23:35.941Z,5.00
2024-03-16T09:26:03.262Z,5.55
2024-03-16T09:28:30.517Z,6.95
2024-03-16T09:30:57.747Z,4.88
2024-03-16T09:33:25.045Z,4.80
2024-03-16T09:35:53.977Z,7.47
2024-03-16T09:38:21.314Z,5.18
2024-03-16T09:40:53.249Z,5.50
